createdAt,value
2019-03-21T00:00:27.077Z,101299.35
2019-03-21T00:02:55.676Z,101301.81
2019-03-21T00:05:26.422Z,101301.97
2019-03-21T00:07:55.046Z,101298.63
2019-03-21T00:11:27.084Z,101278.06
2019-03-21T00:14:07.066Z,101305.52
2019-03-21T00:16:30.659Z,101304.26
2019-03-21T00:18:59.361Z,101305.02
2019-03-21T00:21:27.923Z,101309.48
2019-03-21T00:23:56.494Z,101314.59
2019-03-21T00:26:25.236Z,101313.16
2019-03-21T00:28:53.987Z,101316.69
2019-03-21T00:31:22.573Z,101313.77
2019-03-21T00:33:51.178Z,101316.44
2019-03-21T00:36:19.830Z,101318.88
2019-03-21T00:38:48.413Z,101319.90
2019-03-21T00:41:17.101Z,101313.89
2019-03-21T00:43:45.781Z,101313.14
2019-03-21T00:46:14.349Z,101319.31
2019-03-21T00:48:42.954Z,101316.99
2019-03-21T00:51:11.481Z,101310.52
2019-03-21T00:53:40.148Z,101314.10
2019-03-21T00:56:08.735Z,101315.30
2019-03-21T00:58:37.373Z,101313.87
2019-03-21T01:01:06.063Z,101311.42
2019-03-21T01:03:34.722Z,101310.79
2019-03-21T01:06:03.550Z,101309.98
2019-03-21T01:08:32.117Z,101313.73
2019-03-21T01:11:00.722Z,101314.39
2019-03-21T01:13:31.988Z,101318.48
2019-03-21T01:16:00.629Z,101313.23
2019-03-21T01:18:29.235Z,101311.58
2019-03-21T01:20:57.801Z,101306.84
2019-03-21T01:23:33.503Z,101311.69
2019-03-21T01:26:02.510Z,101313.99
2019-03-21T01:28:31.071Z,101308.59
2019-03-21T01:31:00.206Z,101304.72
2019-03-21T01:33:28.772Z,101309.65
2019-03-21T01:35:57.417Z,101311.50
2019-03-21T01:38:25.974Z,101307.24
2019-03-21T01:43:22.852Z,101307.15
2019-03-21T01:45:51.422Z,101303.80
2019-03-21T01:48:20.074Z,101298.77
2019-03-21T01:50:48.596Z,101299.11
2019-03-21T01:53:17.193Z,101296.52
2019-03-21T01:55:45.749Z,101296.84
2019-03-21T01:58:14.669Z,101300.69
2019-03-21T02:00:43.385Z,101294.97
2019-03-21T02:03:12.194Z,101292.86
2019-03-21T02:05:40.740Z,101287.25
2019-03-21T02:08:09.367Z,101300.39
2019-03-21T02:10:38.001Z,101297.48
2019-03-21T02:13:06.665Z,101291.16
2019-03-21T02:15:35.211Z,101292.41
2019-03-21T02:18:03.848Z,101293.98
2019-03-21T02:20:32.443Z,101295.61
2019-03-21T02:23:01.044Z,101298.64
2019-03-21T02:25:30.048Z,101301.67
2019-03-21T02:27:58.849Z,101302.37
2019-03-21T02:30:30.659Z,101301.28
2019-03-21T02:33:07.324Z,101293.77
2019-03-21T02:35:36.140Z,101299.17
2019-03-21T02:38:04.765Z,101295.99
2019-03-21T02:40:33.341Z,101293.08
2019-03-21T02:43:01.964Z,101294.33
2019-03-21T02:45:30.517Z,101287.06
2019-03-21T02:47:59.099Z,101285.16
2019-03-21T02:50:31.066Z,101290.25
2019-03-21T02:52:59.648Z,101288.05
2019-03-21T02:55:28.320Z,101284.00
2019-03-21T02:57:56.962Z,101285.25
2019-03-21T03:00:26.527Z,101282.49
2019-03-21T03:02:57.342Z,101289.95
2019-03-21T03:05:27.805Z,101297.02
2019-03-21T03:10:46.911Z,101291.23
2019-03-21T03:13:15.513Z,101298.05
2019-03-21T03:15:44.170Z,101299.56
2019-03-21T03:18:12.761Z,101298.71
2019-03-21T03:20:54.274Z,101296.98
2019-03-21T03:23:22.853Z,101305.56
2019-03-21T03:25:51.828Z,101303.68
2019-03-21T03:28:23.010Z,101274.37
2019-03-21T03:30:52.612Z,101298.28
2019-03-21T03:33:21.149Z,101299.03
2019-03-21T03:35:50.032Z,101305.42
2019-03-21T03:38:18.636Z,101307.41
2019-03-21T03:40:51.274Z,101301.50
2019-03-21T03:43:19.874Z,101300.14
2019-03-21T03:45:48.484Z,101306.19
2019-03-21T03:48:19.746Z,101309.86
2019-03-21T03:50:47.498Z,101306.45
2019-03-21T03:53:16.142Z,101305.33
2019-03-21T03:55:44.962Z,101309.97
2019-03-21T03:58:15.358Z,101310.11
2019-03-21T04:00:43.981Z,101310.61
2019-03-21T04:03:12.639Z,101311.80
2019-03-21T04:05:41.236Z,101316.66
2019-03-21T04:08:09.803Z,101309.14
2019-03-21T04:10:41.483Z,101310.77
2019-03-21T04:13:10.062Z,101312.23
2019-03-21T04:15:51.640Z,101313.75
2019-03-21T04:18:09.213Z,101306.29
2019-03-21T04:20:39.757Z,101307.38
2019-03-21T04:23:08.395Z,101308.88
2019-03-21T04:25:53.257Z,101313.25
2019-03-21T04:28:21.961Z,101308.73
2019-03-21T04:30:50.613Z,101311.05
2019-03-21T04:33:22.448Z,101312.06
2019-03-21T04:35:49.883Z,101315.73
2019-03-21T04:38:18.514Z,101317.52
2019-03-21T04:40:47.121Z,101315.45
2019-03-21T04:43:15.719Z,101313.38
2019-03-21T04:45:44.300Z,101307.52
2019-03-21T04:48:12.940Z,101307.71
2019-03-21T04:50:41.631Z,101308.20
2019-03-21T04:53:10.276Z,101318.95
2019-03-21T04:55:38.843Z,101317.48
2019-03-21T04:58:07.489Z,101316.78
2019-03-21T05:00:37.105Z,101319.25
2019-03-21T05:03:06.690Z,101319.90
2019-03-21T05:05:35.242Z,101321.25
2019-03-21T05:08:03.900Z,101324.87
2019-03-21T05:10:32.465Z,101325.57
2019-03-21T05:13:01.081Z,101322.13
2019-03-21T05:15:35.943Z,101326.18
2019-03-21T05:18:15.100Z,101325.09
2019-03-21T05:20:43.669Z,101330.12
2019-03-21T05:23:12.273Z,101329.38
2019-03-21T05:25:41.108Z,101329.33
2019-03-21T05:28:09.742Z,101327.00
2019-03-21T05:30:47.044Z,101329.33
2019-03-21T05:33:15.602Z,101326.80
2019-03-21T05:35:44.378Z,101331.73
2019-03-21T05:38:13.061Z,101335.34
2019-03-21T05:40:41.697Z,101338.03
2019-03-21T05:43:17.836Z,101337.49
2019-03-21T05:45:46.426Z,101334.64
2019-03-21T05:48:15.014Z,101333.45
2019-03-21T05:50:43.592Z,101335.17
2019-03-21T05:53:12.249Z,101334.80
2019-03-21T05:55:40.855Z,101339.33
2019-03-21T05:58:09.529Z,101346.35
2019-03-21T06:00:40.846Z,101348.83
2019-03-21T06:03:19.674Z,101344.99
2019-03-21T06:05:55.640Z,101340.84
2019-03-21T06:08:29.306Z,101349.69
2019-03-21T06:10:57.851Z,101349.08
2019-03-21T06:13:26.436Z,101346.45
2019-03-21T06:16:04.916Z,101352.05
2019-03-21T06:19:24.465Z,101356.53
2019-03-21T06:22:35.371Z,101354.19
2019-03-21T06:26:03.253Z,101359.38
2019-03-21T06:28:31.839Z,101365.71
2019-03-21T06:31:00.455Z,101362.15
2019-03-21T06:33:29.321Z,101365.23
2019-03-21T06:35:57.923Z,101369.99
2019-03-21T06:38:26.446Z,101368.50
2019-03-21T06:40:55.036Z,101362.20
2019-03-21T06:43:23.612Z,101363.67
2019-03-21T06:45:52.202Z,101363.19
2019-03-21T06:48:21.390Z,101364.75
2019-03-21T06:50:49.954Z,101363.28
2019-03-21T06:53:18.543Z,101360.66
2019-03-21T06:55:47.170Z,101358.22
2019-03-21T06:58:15.783Z,101364.91
2019-03-21T07:00:44.420Z,101359.80
2019-03-21T07:03:12.977Z,101356.70
2019-03-21T07:05:41.579Z,101361.80
2019-03-21T07:08:10.174Z,101364.49
2019-03-21T07:10:38.768Z,101362.23
2019-03-21T07:13:07.409Z,101360.48
2019-03-21T07:15:35.953Z,101364.19
2019-03-21T07:18:04.583Z,101381.44
2019-03-21T07:20:33.132Z,101382.02
2019-03-21T07:23:01.744Z,101379.03
2019-03-21T07:25:30.321Z,101369.00
2019-03-21T07:27:59.013Z,101363.16
2019-03-21T07:30:27.605Z,101360.13
2019-03-21T07:32:56.193Z,101355.27
2019-03-21T07:35:24.787Z,101348.56
2019-03-21T07:38:03.641Z,101333.89
2019-03-21T07:40:32.247Z,101336.42
2019-03-21T07:43:00.794Z,101337.20
2019-03-21T07:45:29.374Z,101330.07
2019-03-21T07:47:57.965Z,101330.09
2019-03-21T07:50:26.532Z,101330.09
2019-03-21T07:52:55.113Z,101322.48
2019-03-21T07:55:23.649Z,101318.56
2019-03-21T07:57:52.287Z,101307.78
2019-03-21T08:00:20.834Z,101301.56
2019-03-21T08:02:49.476Z,101300.26
2019-03-21T08:05:18.410Z,101300.98
2019-03-21T08:07:46.983Z,101298.02
2019-03-21T08:10:15.620Z,101291.57
2019-03-21T08:12:44.226Z,101291.25
2019-03-21T08:15:13.110Z,101296.36
2019-03-21T08:17:41.701Z,101286.20
2019-03-21T08:20:12.952Z,101284.08
2019-03-21T08:22:41.528Z,101275.80
2019-03-21T08:25:10.791Z,101273.83
2019-03-21T08:27:39.345Z,101274.61
2019-03-21T08:30:14.894Z,101274.73
2019-03-21T08:32:43.543Z,101272.48
2019-03-21T08:35:12.098Z,101270.09
2019-03-21T08:37:40.899Z,101265.19
2019-03-21T08:40:09.687Z,101267.04
2019-03-21T08:42:38.344Z,101261.58
2019-03-21T08:45:07.129Z,101257.39
2019-03-21T08:47:37.022Z,101258.34
2019-03-21T08:50:06.352Z,101251.70
2019-03-21T08:52:34.942Z,101262.34
2019-03-21T08:55:03.689Z,101256.98
2019-03-21T08:57:32.273Z,101249.48
2019-03-21T09:00:00.918Z,101252.55
2019-03-21T09:02:29.477Z,101252.28
2019-03-21T09:04:59.747Z,101247.63
2019-03-21T09:07:28.529Z,101247.56
2019-03-21T09:09:57.113Z,101241.56
2019-03-21T09:12:25.754Z,101240.25
2019-03-21T09:14:54.309Z,101235.65
2019-03-21T09:17:22.992Z,101229.08
2019-03-21T09:19:51.571Z,101228.09
2019-03-21T09:22:20.199Z,101225.58
2019-03-21T09:24:48.820Z,101223.33
2019-03-21T09:27:22.674Z,101219.75
2019-03-21T09:29:53.772Z,101224.16
2019-03-21T09:32:21.883Z,101220.91
2019-03-21T09:34:51.275Z,101200.92
2019-03-21T09:37:25.155Z,101194.51
2019-03-21T09:39:53.718Z,101206.41
2019-03-21T09:42:22.320Z,101204.55
2019-03-21T09:44:50.889Z,101206.80
2019-03-21T09:47:24.541Z,101206.47
2019-03-21T09:49:53.109Z,101210.01
2019-03-21T09:52:22.902Z,101212.21
2019-03-21T09:54:51.498Z,101211.92
2019-03-21T09:57:20.100Z,101218.21
2019-03-21T09:59:48.651Z,101213.28
2019-03-21T10:02:17.256Z,101209.06
2019-03-21T10:04:45.812Z,101213.50
2019-03-21T10:07:14.396Z,101211.91
2019-03-21T10:09:43.228Z,101215.81
2019-03-21T10:12:11.761Z,101213.16
2019-03-21T10:14:40.363Z,101212.98
2019-03-21T10:17:19.260Z,101210.48
2019-03-21T10:19:48.527Z,101210.83
2019-03-21T10:22:17.262Z,101208.48
2019-03-21T10:24:45.841Z,101210.00
2019-03-21T10:27:14.426Z,101205.51
2019-03-21T10:29:42.978Z,101205.03
2019-03-21T10:32:14.495Z,101206.19
2019-03-21T10:34:42.039Z,101203.53
2019-03-21T10:37:10.702Z,101213.28
2019-03-21T10:39:39.309Z,101197.62
2019-03-21T10:42:07.966Z,101187.69
2019-03-21T10:44:36.593Z,101178.91
2019-03-21T10:47:05.139Z,101174.02
2019-03-21T10:49:33.737Z,101167.55
2019-03-21T10:52:02.319Z,101158.13
2019-03-21T10:54:30.982Z,101160.88
2019-03-21T10:56:59.517Z,101156.45
2019-03-21T10:59:28.493Z,101150.43
2019-03-21T11:02:06.855Z,101152.95
2019-03-21T11:04:27.653Z,101151.66
2019-03-21T11:07:00.512Z,101147.30
2019-03-21T11:09:29.735Z,101144.56
2019-03-21T11:11:58.361Z,101139.77
2019-03-21T11:14:27.023Z,101130.80
2019-03-21T11:16:56.396Z,101118.00
2019-03-21T11:19:24.946Z,101117.27
2019-03-21T11:21:53.535Z,101122.88
2019-03-21T11:24:22.219Z,101119.26
2019-03-21T11:26:51.054Z,101112.51
2019-03-21T11:29:19.654Z,101104.52
2019-03-21T11:31:48.239Z,101095.75
2019-03-21T11:34:16.829Z,101092.62
2019-03-21T11:36:45.667Z,101087.48
2019-03-21T11:39:14.216Z,101081.84
2019-03-21T11:41:42.907Z,101075.94
2019-03-21T11:44:11.478Z,101080.63
2019-03-21T11:46:45.163Z,101069.31
2019-03-21T11:49:13.729Z,101073.69
2019-03-21T11:51:42.290Z,101074.00
2019-03-21T11:54:10.934Z,101067.56
2019-03-21T11:56:39.514Z,101062.78
2019-03-21T11:59:08.126Z,101063.05
2019-03-21T12:01:36.763Z,101067.78
2019-03-21T12:04:05.426Z,101061.00
2019-03-21T12:06:34.124Z,101056.83
2019-03-21T12:09:04.276Z,101049.86
2019-03-21T12:11:32.900Z,101044.36
2019-03-21T12:14:01.503Z,101043.67
2019-03-21T12:16:31.024Z,101045.65
2019-03-21T12:18:59.565Z,101037.79
2019-03-21T12:21:28.172Z,101034.25
2019-03-21T12:23:56.786Z,101029.33
2019-03-21T12:26:25.353Z,101023.48
2019-03-21T12:28:53.908Z,101022.28
2019-03-21T12:31:22.475Z,101013.12
2019-03-21T12:33:51.081Z,101006.81
2019-03-21T12:36:25.981Z,101011.03
2019-03-21T12:38:54.590Z,101007.35
2019-03-21T12:41:23.156Z,101003.58
2019-03-21T12:43:51.740Z,101004.25
2019-03-21T12:46:25.511Z,100999.32
2019-03-21T12:48:54.196Z,100999.41
2019-03-21T12:51:22.776Z,100991.50
2019-03-21T12:53:51.411Z,100987.20
2019-03-21T12:56:21.569Z,100982.30
2019-03-21T12:58:50.155Z,100978.41
2019-03-21T13:01:18.786Z,100976.81
2019-03-21T13:03:47.422Z,100968.11
2019-03-21T13:06:16.214Z,100967.74
2019-03-21T13:08:44.739Z,100963.63
2019-03-21T13:11:13.328Z,100960.95
2019-03-21T13:13:41.976Z,100962.83
2019-03-21T13:16:15.596Z,100959.77
2019-03-21T13:18:44.151Z,100955.34
2019-03-21T13:21:12.825Z,100957.99
2019-03-21T13:23:41.410Z,100955.62
2019-03-21T13:26:10.040Z,100951.19
2019-03-21T13:28:38.613Z,100950.56
2019-03-21T13:31:07.338Z,100940.44
2019-03-21T13:33:35.922Z,100938.14
2019-03-21T13:36:04.498Z,100946.16
2019-03-21T13:38:33.066Z,100942.48
2019-03-21T13:41:01.708Z,100939.60
2019-03-21T13:43:30.336Z,100942.57
2019-03-21T13:45:59.176Z,100936.62
2019-03-21T13:48:27.767Z,100934.12
2019-03-21T13:50:56.374Z,100926.71
2019-03-21T13:53:24.950Z,100927.77
2019-03-21T13:55:53.801Z,100919.80
2019-03-21T13:58:22.393Z,100915.48
2019-03-21T14:00:50.999Z,100910.91
2019-03-21T14:03:25.103Z,100913.28
2019-03-21T14:05:50.138Z,100904.55
2019-03-21T14:08:18.771Z,100904.19
2019-03-21T14:10:47.318Z,100906.23
2019-03-21T14:13:15.930Z,100901.59
2019-03-21T14:15:44.497Z,100896.53
2019-03-21T14:18:14.310Z,100896.27
2019-03-21T14:20:42.937Z,100891.11
2019-03-21T14:23:16.851Z,100894.98
2019-03-21T14:25:42.009Z,100873.33
2019-03-21T14:28:10.568Z,100877.98
2019-03-21T14:30:39.214Z,100880.58
2019-03-21T14:33:08.460Z,100870.19
2019-03-21T14:35:37.170Z,100871.17
2019-03-21T14:38:05.777Z,100862.40
2019-03-21T14:40:36.949Z,100867.34
2019-03-21T14:43:05.884Z,100875.38
2019-03-21T14:45:34.475Z,100875.13
2019-03-21T14:48:03.142Z,100870.22
2019-03-21T14:50:31.778Z,100869.69
2019-03-21T14:53:00.422Z,100869.95
2019-03-21T14:55:29.026Z,100874.06
2019-03-21T14:57:57.586Z,100872.69
2019-03-21T15:00:26.279Z,100865.30
2019-03-21T15:02:54.882Z,100863.92
2019-03-21T15:05:23.518Z,100863.22
2019-03-21T15:07:52.161Z,100866.08
2019-03-21T15:10:20.750Z,100858.78
2019-03-21T15:12:49.366Z,100853.98
2019-03-21T15:15:18.075Z,100852.94
2019-03-21T15:17:46.695Z,100854.13
2019-03-21T15:20:16.329Z,100853.48
2019-03-21T15:22:44.914Z,100850.99
2019-03-21T15:25:13.746Z,100846.38
2019-03-21T15:27:42.389Z,100849.39
2019-03-21T15:30:14.815Z,100846.53
2019-03-21T15:32:43.578Z,100847.75
2019-03-21T15:35:12.782Z,100851.55
2019-03-21T15:37:41.455Z,100852.81
2019-03-21T15:40:14.895Z,100852.05
2019-03-21T15:42:43.520Z,100850.09
2019-03-21T15:45:22.217Z,100844.41
2019-03-21T15:47:45.529Z,100841.15
2019-03-21T15:50:29.131Z,100845.36
2019-03-21T15:52:57.879Z,100843.39
2019-03-21T15:55:26.509Z,100843.72
2019-03-21T15:57:55.117Z,100841.20
2019-03-21T16:00:34.564Z,100835.06
2019-03-21T16:03:04.297Z,100840.75
2019-03-21T16:05:32.900Z,100843.14
2019-03-21T16:08:01.525Z,100844.84
2019-03-21T16:10:30.080Z,100843.34
2019-03-21T16:12:58.695Z,100842.41
2019-03-21T16:15:27.324Z,100840.44
2019-03-21T16:17:55.944Z,100836.14
2019-03-21T16:20:24.492Z,100841.88
2019-03-21T16:22:53.128Z,100839.67
2019-03-21T16:25:21.811Z,100840.55
2019-03-21T16:27:50.452Z,100841.08
2019-03-21T16:30:19.158Z,100839.09
2019-03-21T16:32:47.817Z,100842.31
2019-03-21T16:35:16.462Z,100841.28
2019-03-21T16:37:45.078Z,100847.81
2019-03-21T16:40:13.898Z,100853.16
2019-03-21T16:42:42.554Z,100848.34
2019-03-21T16:45:14.190Z,100846.03
2019-03-21T16:47:42.741Z,100850.34
2019-03-21T16:50:11.547Z,100847.11
2019-03-21T16:52:40.138Z,100849.73
2019-03-21T16:55:11.403Z,100853.77
2019-03-21T16:57:40.108Z,100859.58
2019-03-21T17:00:08.938Z,100855.81
2019-03-21T17:02:37.553Z,100857.06
2019-03-21T17:05:06.408Z,100854.27
2019-03-21T17:07:35.067Z,100852.47
2019-03-21T17:10:05.115Z,100851.94
2019-03-21T17:12:33.985Z,100857.16
2019-03-21T17:15:02.600Z,100865.34
2019-03-21T17:17:31.356Z,100866.50
2019-03-21T17:19:59.917Z,100869.62
2019-03-21T17:22:28.640Z,100874.73
2019-03-21T17:24:57.233Z,100871.91
2019-03-21T17:27:26.155Z,100879.13
2019-03-21T17:29:54.781Z,100884.81
2019-03-21T17:32:23.419Z,100881.55
2019-03-21T17:34:52.041Z,100879.78
2019-03-21T17:37:20.768Z,100880.45
2019-03-21T17:39:52.252Z,100883.12
2019-03-21T17:42:21.245Z,100885.88
2019-03-21T17:44:51.986Z,100887.81
2019-03-21T17:47:20.781Z,100891.89
2019-03-21T17:49:49.369Z,100887.21
2019-03-21T17:52:18.020Z,100890.94
2019-03-21T17:54:46.588Z,100897.48
2019-03-21T17:57:15.213Z,100899.03
2019-03-21T17:59:43.790Z,100902.24
2019-03-21T18:02:12.547Z,100903.12
2019-03-21T18:04:41.556Z,100908.46
2019-03-21T18:07:10.490Z,100908.54
2019-03-21T18:09:39.075Z,100911.89
2019-03-21T18:12:08.001Z,100909.11
2019-03-21T18:14:36.608Z,100911.78
2019-03-21T18:17:05.270Z,100917.62
2019-03-21T18:19:33.900Z,100915.17
2019-03-21T18:22:02.509Z,100919.19
2019-03-21T18:24:31.152Z,100920.66
2019-03-21T18:27:00.093Z,100917.09
2019-03-21T18:29:28.735Z,100922.09
2019-03-21T18:31:57.848Z,100931.50
2019-03-21T18:34:26.508Z,100932.05
2019-03-21T18:36:55.384Z,100930.91
2019-03-21T18:39:24.036Z,100932.92
2019-03-21T18:41:52.717Z,100939.34
2019-03-21T18:44:28.775Z,100937.42
2019-03-21T18:47:02.158Z,100945.03
2019-03-21T18:49:31.982Z,100940.11
2019-03-21T18:52:00.566Z,100938.91
2019-03-21T18:54:36.669Z,100938.27
2019-03-21T18:57:05.435Z,100940.92
2019-03-21T18:59:34.083Z,100945.05
2019-03-21T19:02:02.674Z,100923.89
2019-03-21T19:04:31.324Z,100945.26
2019-03-21T19:06:59.989Z,100944.30
2019-03-21T19:09:28.683Z,100947.12
2019-03-21T19:11:59.022Z,100949.55
2019-03-21T19:14:30.106Z,100955.33
2019-03-21T19:16:58.783Z,100952.84
2019-03-21T19:19:27.867Z,100956.34
2019-03-21T19:21:56.493Z,100953.69
2019-03-21T19:24:25.109Z,100961.80
2019-03-21T19:26:59.050Z,100962.86
2019-03-21T19:29:27.643Z,100963.20
2019-03-21T19:31:56.242Z,100964.11
2019-03-21T19:34:24.899Z,100964.00
2019-03-21T19:36:58.662Z,100969.98
2019-03-21T19:39:27.316Z,100970.52
2019-03-21T19:41:55.897Z,100971.98
2019-03-21T19:44:24.544Z,100976.72
2019-03-21T19:47:03.512Z,100977.33
2019-03-21T19:49:32.208Z,100977.31
2019-03-21T19:52:00.851Z,100978.80
2019-03-21T19:54:29.469Z,100977.38
2019-03-21T19:56:58.252Z,100976.13
2019-03-21T19:59:29.612Z,100973.35
2019-03-21T20:01:58.247Z,100970.59
2019-03-21T20:04:26.942Z,100975.02
2019-03-21T20:07:00.622Z,100981.33
2019-03-21T20:09:29.257Z,100983.76
2019-03-21T20:11:57.886Z,100980.16
2019-03-21T20:14:26.576Z,100982.78
2019-03-21T20:16:55.251Z,100985.77
2019-03-21T20:19:23.958Z,100988.27
2019-03-21T20:21:52.552Z,100994.99
2019-03-21T20:24:21.192Z,100988.59
2019-03-21T20:26:49.809Z,100998.95
2019-03-21T20:29:18.466Z,100994.52
2019-03-21T20:31:47.118Z,101000.00
2019-03-21T20:34:15.791Z,101002.02
2019-03-21T20:36:44.377Z,101001.88
2019-03-21T20:39:13.073Z,101007.25
2019-03-21T20:41:41.677Z,101004.13
2019-03-21T20:44:15.144Z,101003.66
2019-03-21T20:46:40.776Z,101007.46
2019-03-21T20:49:09.431Z,101008.51
2019-03-21T20:51:38.068Z,101005.22
2019-03-21T20:54:06.704Z,101008.23
2019-03-21T20:56:35.274Z,101003.00
2019-03-21T20:59:03.879Z,101004.38
2019-03-21T21:01:32.505Z,101007.58
2019-03-21T21:04:01.183Z,101000.70
2019-03-21T21:06:29.775Z,100999.77
2019-03-21T21:08:58.447Z,100993.37
2019-03-21T21:11:27.028Z,100997.33
2019-03-21T21:13:55.611Z,100998.67
2019-03-21T21:16:24.245Z,100993.95
2019-03-21T21:18:52.911Z,100993.58
2019-03-21T21:21:21.487Z,100993.00
2019-03-21T21:23:50.404Z,100997.29
2019-03-21T21:26:19.225Z,100999.03
2019-03-21T21:28:47.844Z,100994.34
2019-03-21T21:31:16.477Z,100998.81
2019-03-21T21:33:45.088Z,100999.61
2019-03-21T21:36:48.830Z,100997.27
2019-03-21T21:39:17.393Z,100998.33
2019-03-21T21:41:46.067Z,100999.44
2019-03-21T21:44:14.669Z,100999.86
2019-03-21T21:46:43.303Z,101006.00
2019-03-21T21:49:13.103Z,101002.06
2019-03-21T21:51:41.804Z,101000.36
2019-03-21T21:54:10.419Z,101007.06
2019-03-21T21:56:39.000Z,101008.05
2019-03-21T21:59:07.611Z,101004.14
2019-03-21T22:01:36.232Z,101009.14
2019-03-21T22:04:05.752Z,101004.05
2019-03-21T22:06:35.308Z,101004.08
2019-03-21T22:09:06.334Z,101004.38
2019-03-21T22:11:34.908Z,101002.09
2019-03-21T22:14:04.032Z,100999.44
2019-03-21T22:16:32.587Z,100997.59
2019-03-21T22:19:01.153Z,100999.52
2019-03-21T22:21:29.765Z,101005.94
2019-03-21T22:23:58.381Z,101004.57
2019-03-21T22:26:29.833Z,101001.87
2019-03-21T22:28:57.479Z,101002.89
2019-03-21T22:31:26.025Z,101002.37
2019-03-21T22:33:54.580Z,101003.62
2019-03-21T22:36:23.199Z,100986.16
2019-03-21T22:38:51.780Z,101007.66
2019-03-21T22:41:20.481Z,101003.91
2019-03-21T22:43:49.074Z,101001.92
2019-03-21T22:46:17.743Z,101000.55
2019-03-21T22:48:46.271Z,100999.12
2019-03-21T22:51:14.956Z,101003.77
2019-03-21T22:53:43.512Z,101009.87
2019-03-21T22:56:12.111Z,101008.22
2019-03-21T22:58:40.739Z,101009.86
2019-03-21T23:01:09.343Z,101007.58
2019-03-21T23:03:37.824Z,101007.13
2019-03-21T23:06:06.399Z,101002.48
2019-03-21T23:08:34.881Z,101001.88
2019-03-21T23:11:03.401Z,100995.70
2019-03-21T23:13:31.929Z,100999.23
2019-03-21T23:16:00.406Z,100997.04
2019-03-21T23:18:28.934Z,100996.20
2019-03-21T23:20:57.431Z,100996.65
2019-03-21T23:23:25.943Z,101000.48
2019-03-21T23:25:54.770Z,101002.53
2019-03-21T23:28:23.369Z,101006.16
2019-03-21T23:30:51.883Z,101003.58
2019-03-21T23:33:20.466Z,101002.66
2019-03-21T23:35:49.026Z,101011.77
2019-03-21T23:38:17.526Z,101006.61
2019-03-21T23:40:46.080Z,101008.66
2019-03-21T23:43:14.607Z,101007.58
2019-03-21T23:45:43.163Z,101004.05
2019-03-21T23:48:11.671Z,101008.72
2019-03-21T23:50:40.205Z,100993.36
2019-03-21T23:53:08.732Z,101002.34
2019-03-21T23:55:37.269Z,101000.48
2019-03-21T23:58:05.795Z,101002.90
